Terminal Aerodrome Forecast
Issued by NWS Spokane, WA

Home | Current Version | Previous Version | Text Only | Print | Product List | Glossary On
Versions: 1 2 3 4 5 6 7 8 9 10 11 12 13 14 15 16 17 18 19 20 21 22 23 24 25 26 27 28 29 30 31
000
FTUS46 KOTX 021737
TAFGEG
TAF
KGEG 021737Z 0218/0318 01006KT P6SM VCSH BKN050 OVC070
     FM022000 33008KT P6SM VCSH SCT030 BKN050 OVC070
     FM022300 33010G15KT P6SM VCSH SCT025 BKN040 OVC090
     FM030300 01013G19KT P6SM SCT025 BKN100
     FM030600 01008KT P6SM FEW250=

USA.gov is the U.S. government's official web portal to all federal, state and local government web resources and services.